createdAt,value
2022-09-28T04:00:19.127Z,68.41
2022-09-28T04:03:21.670Z,68.41
2022-09-28T04:06:26.808Z,71.35
2022-09-28T04:09:29.194Z,70.78
2022-09-28T04:12:31.331Z,70.90
2022-09-28T04:15:33.601Z,70.44
2022-09-28T04:18:35.663Z,69.84
2022-09-28T04:21:38.189Z,70.77
2022-09-28T04:24:43.478Z,70.24
2022-09-28T04:28:04.298Z,70.58
2022-09-28T04:31:16.127Z,70.21
2022-09-28T04:34:21.514Z,70.20
2022-09-28T04:37:24.321Z,70.81
2022-09-28T04:40:26.909Z,69.62
2022-09-28T04:43:29.114Z,70.41
2022-09-28T04:46:32.317Z,70.59
2022-09-28T04:49:38.245Z,71.01
2022-09-28T04:52:40.924Z,71.42
2022-09-28T04:55:43.086Z,72.07
2022-09-28T04:58:50.322Z,71.35
2022-09-28T05:01:55.399Z,71.93
2022-09-28T05:04:59.287Z,72.16
2022-09-28T05:08:01.554Z,72.47
2022-09-28T05:11:07.453Z,72.48
2022-09-28T05:14:11.601Z,72.96
2022-09-28T05:17:15.050Z,72.83
2022-09-28T05:20:17.670Z,72.83
2022-09-28T05:23:20.061Z,72.70
2022-09-28T05:26:22.877Z,74.33
2022-09-28T05:29:27.168Z,73.22
2022-09-28T05:32:32.506Z,72.82
2022-09-28T05:35:34.885Z,73.72
2022-09-28T05:38:37.165Z,71.98
2022-09-28T05:41:39.546Z,74.59
2022-09-28T05:44:41.623Z,71.45
2022-09-28T05:47:46.070Z,73.16
2022-09-28T05:50:52.619Z,71.99
2022-09-28T05:53:56.523Z,71.79
2022-09-28T05:56:58.741Z,73.29
2022-09-28T06:00:04.828Z,71.31
2022-09-28T06:03:14.713Z,72.64
2022-09-28T06:06:17.146Z,71.84
2022-09-28T06:09:23.844Z,71.66
2022-09-28T06:12:28.674Z,70.72
2022-09-28T06:15:32.681Z,70.64
2022-09-28T06:18:35.380Z,68.83
2022-09-28T06:21:38.181Z,70.58
2022-09-28T06:24:41.289Z,69.66
2022-09-28T06:27:43.349Z,69.68
2022-09-28T06:30:45.811Z,70.69
2022-09-28T06:33:51.703Z,70.41
2022-09-28T06:36:53.998Z,73.18
2022-09-28T06:39:56.388Z,70.83
2022-09-28T06:43:00.689Z,72.03
2022-09-28T06:46:03.394Z,70.49
2022-09-28T06:49:09.186Z,69.94
2022-09-28T06:52:14.890Z,68.72
2022-09-28T06:55:18.632Z,66.79
2022-09-28T06:58:21.389Z,65.65
2022-09-28T07:01:24.811Z,66.12
2022-09-28T07:04:31.078Z,68.89
2022-09-28T07:07:34.545Z,66.55
2022-09-28T07:10:42.029Z,66.35
2022-09-28T07:13:50.911Z,66.60
2022-09-28T07:17:12.354Z,66.53
2022-09-28T07:20:19.213Z,65.97
2022-09-28T07:23:23.281Z,66.98
2022-09-28T07:26:33.146Z,66.35
2022-09-28T07:29:35.303Z,65.89
2022-09-28T07:32:40.231Z,66.52
2022-09-28T07:35:50.651Z,65.02
2022-09-28T07:38:53.001Z,64.63
2022-09-28T07:41:59.644Z,64.45
2022-09-28T07:45:06.878Z,64.87
2022-09-28T07:48:09.268Z,62.33
2022-09-28T07:51:12.656Z,62.08
2022-09-28T07:54:14.755Z,62.68
2022-09-28T07:57:19.405Z,63.95
2022-09-28T08:00:22.210Z,65.00
2022-09-28T08:03:24.801Z,64.07
2022-09-28T08:06:27.323Z,64.38
2022-09-28T08:09:29.946Z,64.87
2022-09-28T08:12:36.000Z,65.84
2022-09-28T08:15:38.438Z,66.27
2022-09-28T08:18:41.410Z,64.88
2022-09-28T08:21:46.392Z,66.67
2022-09-28T08:24:49.575Z,65.87
2022-09-28T08:27:52.631Z,66.52
2022-09-28T08:30:58.689Z,65.76
2022-09-28T08:34:02.978Z,67.11
2022-09-28T08:37:09.211Z,67.48
2022-09-28T08:40:19.027Z,65.29
2022-09-28T08:43:57.707Z,65.67
2022-09-28T08:47:05.754Z,63.58
2022-09-28T08:50:16.575Z,64.98
2022-09-28T08:54:00.826Z,64.63
2022-09-28T08:57:16.433Z,62.72
2022-09-28T09:00:31.174Z,62.25
2022-09-28T09:03:37.693Z,62.32
2022-09-28T09:06:43.946Z,61.37
2022-09-28T09:10:20.715Z,61.57
2022-09-28T09:13:41.015Z,62.24
2022-09-28T09:17:13.853Z,62.88
2022-09-28T09:20:29.962Z,63.46
2022-09-28T09:23:43.159Z,60.55
2022-09-28T09:26:45.713Z,63.07
2022-09-28T09:30:23.889Z,62.79
2022-09-28T09:34:12.035Z,62.98
2022-09-28T09:37:30.058Z,63.80
2022-09-28T09:40:44.701Z,64.46
2022-09-28T09:44:03.084Z,63.36
2022-09-28T09:47:11.477Z,60.49
2022-09-28T09:50:35.267Z,60.31
2022-09-28T09:53:45.918Z,59.57
2022-09-28T09:57:03.634Z,60.81
2022-09-28T10:00:14.291Z,60.66
2022-09-28T10:03:39.049Z,60.49
2022-09-28T10:06:42.341Z,61.74
2022-09-28T10:09:48.225Z,62.69
2022-09-28T10:12:52.996Z,60.99
2022-09-28T10:15:56.240Z,62.42
2022-09-28T10:18:59.909Z,62.54
2022-09-28T10:22:15.909Z,62.63
2022-09-28T10:25:19.842Z,64.46
2022-09-28T10:28:32.938Z,62.95
2022-09-28T10:31:40.450Z,63.14
2022-09-28T10:34:45.450Z,62.99
2022-09-28T10:38:05.062Z,62.58
2022-09-28T10:41:13.507Z,62.70
2022-09-28T10:44:19.193Z,61.58
2022-09-28T10:47:26.506Z,59.43
2022-09-28T10:50:29.002Z,59.44
2022-09-28T10:53:34.731Z,60.44
2022-09-28T10:56:40.793Z,60.98
2022-09-28T10:59:43.810Z,59.55
2022-09-28T11:02:47.017Z,58.72
2022-09-28T11:06:02.505Z,60.43
2022-09-28T11:09:29.693Z,59.92
2022-09-28T11:12:43.039Z,60.85
2022-09-28T11:15:45.993Z,58.61
2022-09-28T11:18:49.464Z,59.65
2022-09-28T11:21:51.775Z,59.56
2022-09-28T11:25:18.159Z,60.31
2022-09-28T11:28:27.654Z,60.30
2022-09-28T11:31:31.460Z,59.78
2022-09-28T11:34:59.250Z,60.13
2022-09-28T11:38:25.454Z,57.82
2022-09-28T11:41:31.485Z,57.17
2022-09-28T11:44:48.221Z,58.30
2022-09-28T11:48:01.245Z,58.97
2022-09-28T11:51:29.293Z,59.72
2022-09-28T11:54:57.066Z,58.74
2022-09-28T11:58:35.097Z,60.46
2022-09-28T12:01:45.923Z,58.80
2022-09-28T12:04:55.270Z,57.45
2022-09-28T12:08:08.244Z,57.54
2022-09-28T12:11:20.482Z,58.79
2022-09-28T12:14:38.157Z,58.94
2022-09-28T12:17:46.164Z,57.24
2022-09-28T12:20:55.189Z,57.16
2022-09-28T12:24:22.897Z,57.53
2022-09-28T12:27:41.024Z,57.82
2022-09-28T12:30:45.176Z,57.66
2022-09-28T12:33:50.954Z,58.81
2022-09-28T12:37:10.630Z,56.56
2022-09-28T12:40:41.481Z,57.10
2022-09-28T12:44:09.864Z,57.58
2022-09-28T12:47:34.847Z,59.92
2022-09-28T12:50:55.989Z,57.66
2022-09-28T12:54:28.822Z,57.96
2022-09-28T12:57:38.021Z,57.93
2022-09-28T13:01:17.579Z,58.06
2022-09-28T13:05:08.986Z,56.82
2022-09-28T13:08:31.545Z,56.71
2022-09-28T13:12:05.177Z,56.40
2022-09-28T13:15:17.569Z,57.89
2022-09-28T13:18:37.273Z,55.76
2022-09-28T13:22:12.377Z,55.71
2022-09-28T13:25:18.261Z,55.54
2022-09-28T13:28:26.226Z,55.26
2022-09-28T13:31:34.949Z,55.43
2022-09-28T13:34:39.538Z,54.83
2022-09-28T13:37:41.892Z,56.59
2022-09-28T13:41:03.462Z,54.48
2022-09-28T13:44:12.619Z,54.71
2022-09-28T13:47:38.904Z,56.34
2022-09-28T13:51:23.544Z,55.09
2022-09-28T13:54:50.416Z,55.58
2022-09-28T13:57:58.680Z,57.99
2022-09-28T14:01:10.547Z,55.14
2022-09-28T14:04:25.106Z,55.03
2022-09-28T14:08:11.168Z,57.52
2022-09-28T14:11:34.166Z,57.42
2022-09-28T14:14:51.234Z,54.14
2022-09-28T14:18:08.369Z,54.51
2022-09-28T14:21:45.762Z,52.84
2022-09-28T14:25:04.209Z,52.38
2022-09-28T14:28:37.690Z,54.00
2022-09-28T14:31:43.554Z,52.56
2022-09-28T14:34:54.838Z,53.75
2022-09-28T14:38:24.766Z,53.92
2022-09-28T14:41:43.148Z,53.38
2022-09-28T14:45:06.599Z,55.45
2022-09-28T14:48:18.939Z,53.35
2022-09-28T14:51:41.118Z,53.50
2022-09-28T14:54:49.137Z,53.57
2022-09-28T14:57:55.077Z,55.21
2022-09-28T15:01:05.194Z,57.59
2022-09-28T15:04:12.673Z,56.22
2022-09-28T15:07:22.770Z,56.94
2022-09-28T15:10:33.405Z,55.87
2022-09-28T15:13:35.574Z,55.45
2022-09-28T15:16:38.074Z,55.87
2022-09-28T15:19:53.656Z,55.88
2022-09-28T15:22:57.244Z,55.79
2022-09-28T15:25:59.314Z,58.66
2022-09-28T15:29:04.237Z,55.93
2022-09-28T15:32:06.649Z,56.39
